Time;durP1;ratioP1;P1;durP2;ratioP2;P2;SDS_P1;SDS_P2;PMS_P1;PMS_P2;Temp;Humidity;BMP_temperature;BMP_pressure;BME280_temperature;BME280_humidity;BME280_pressure;Samples;Min_cycle;Max_cycle;Signal;HPM_P1;HPM_P2
2022/11/03 00:01:48;;;;;;;42.80;18.73;;;;;;;8.40;100.00;101357.74;5068301;57;1142884;-77
2022/11/03 00:06:56;;;;;;;42.37;16.97;;;;;;;8.37;100.00;101361.39;5063325;57;1140886;-77
2022/11/03 00:12:02;;;;;;;43.13;18.00;;;;;;;8.36;100.00;101370.70;5063886;57;1140904;-78
2022/11/03 00:17:08;;;;;;;47.40;15.83;;;;;;;8.38;100.00;101374.11;4988904;57;1143006;-77
2022/11/03 00:22:15;;;;;;;30.32;12.43;;;;;;;8.43;100.00;101377.32;5044166;57;1142834;-78
2022/11/03 00:27:21;;;;;;;35.23;11.90;;;;;;;8.43;100.00;101375.53;5036795;57;1143223;-78
2022/11/03 00:32:26;;;;;;;32.38;13.48;;;;;;;8.38;100.00;101368.37;5047639;57;1142995;-77
2022/11/03 00:37:32;;;;;;;30.95;12.13;;;;;;;8.29;100.00;101378.51;5070526;57;1143183;-77
2022/11/03 00:42:38;;;;;;;24.50;9.87;;;;;;;8.21;100.00;101377.62;5078972;57;1140925;-77
2022/11/03 00:53:06;;;;;;;27.80;9.00;;;;;;;8.06;100.00;101379.77;5079129;57;1142928;-77
2022/11/03 00:58:13;;;;;;;17.67;7.70;;;;;;;8.07;100.00;101375.73;5079561;57;1140941;-78
2022/11/03 01:03:19;;;;;;;20.07;7.77;;;;;;;8.14;100.00;101372.28;4979801;57;1140786;-77
2022/11/03 01:08:24;;;;;;;20.13;8.80;;;;;;;8.16;100.00;101373.52;5007053;57;1140667;-78
2022/11/03 01:13:30;;;;;;;23.80;8.25;;;;;;;8.11;100.00;101377.71;4986672;58;1140682;-78
2022/11/03 01:18:36;;;;;;;16.03;7.10;;;;;;;8.07;100.00;101377.05;4959425;58;1138711;-78
2022/11/03 01:23:42;;;;;;;17.07;7.30;;;;;;;8.01;100.00;101380.47;5007074;57;1138594;-77
2022/11/03 01:28:49;;;;;;;15.80;6.33;;;;;;;8.00;100.00;101371.70;5007090;58;1140642;-77
2022/11/03 01:33:56;;;;;;;13.83;6.70;;;;;;;8.01;100.00;101369.92;5007476;57;1140940;-77
2022/11/03 01:39:02;;;;;;;13.30;6.47;;;;;;;8.03;100.00;101366.75;5026130;57;1140693;-77
2022/11/03 01:44:13;;;;;;;16.83;6.63;;;;;;;7.95;100.00;101369.78;5034203;57;1140840;-77
2022/11/03 01:49:23;;;;;;;19.27;7.70;;;;;;;7.89;100.00;101364.00;5026349;57;1140824;-77
2022/11/03 01:54:31;;;;;;;21.43;7.23;;;;;;;7.83;100.00;101357.27;5026654;57;1138591;-77
2022/11/03 01:59:37;;;;;;;14.20;6.20;;;;;;;7.78;100.00;101367.67;5011879;57;1138735;-77
2022/11/03 02:04:44;;;;;;;15.97;5.70;;;;;;;7.76;100.00;101359.85;4975105;57;1140670;-77
2022/11/03 02:09:50;;;;;;;17.30;6.47;;;;;;;7.80;100.00;101352.61;4974939;58;1140907;-77
2022/11/03 02:15:00;;;;;;;14.53;6.27;;;;;;;7.81;100.00;101351.22;4999878;57;1140933;-78
2022/11/03 02:20:14;;;;;;;19.77;6.40;;;;;;;7.82;100.00;101343.70;5021368;57;1141383;-78
2022/11/03 02:25:44;;;;;;;12.93;6.23;;;;;;;7.76;100.00;101337.00;5007543;57;1140970;-77
2022/11/03 02:31:21;;;;;;;14.93;5.50;;;;;;;7.72;100.00;101338.55;5007743;56;1138829;-77
2022/11/03 02:36:34;;;;;;;11.30;4.95;;;;;;;7.60;100.00;101346.64;5025264;57;1138750;-77
2022/11/03 02:41:44;;;;;;;11.10;5.22;;;;;;;7.40;100.00;101345.02;4995233;57;1140937;-77
2022/11/03 02:46:54;;;;;;;12.20;5.30;;;;;;;7.24;100.00;101336.67;4995338;57;1140954;-77
2022/11/03 02:52:04;;;;;;;13.50;5.92;;;;;;;7.18;100.00;101337.00;4995338;57;1140892;-77
2022/11/03 02:57:17;;;;;;;11.75;5.53;;;;;;;7.21;100.00;101346.88;4995181;57;1140976;-78
2022/11/03 03:02:31;;;;;;;14.18;5.90;;;;;;;7.19;100.00;101330.78;5023138;57;1141127;-77
2022/11/03 03:07:41;;;;;;;17.27;6.10;;;;;;;7.30;100.00;101336.38;5066416;57;1138916;-76
2022/11/03 03:12:54;;;;;;;20.07;6.50;;;;;;;7.32;100.00;101338.00;5061838;57;1138743;-77
2022/11/03 03:18:16;;;;;;;12.40;5.07;;;;;;;7.27;100.00;101332.11;4814988;59;1139003;-77
2022/11/03 03:23:31;;;;;;;10.63;4.70;;;;;;;7.28;100.00;101339.08;4983488;58;1140952;-77
2022/11/03 03:29:04;;;;;;;12.33;5.37;;;;;;;7.21;100.00;101336.81;4983502;58;1140932;-77
2022/11/03 03:34:11;;;;;;;15.43;5.87;;;;;;;7.16;100.00;101339.70;4988910;57;1178362;-77
2022/11/03 03:39:20;;;;;;;23.17;9.37;;;;;;;7.17;100.00;101332.20;5066132;57;1140662;-77
2022/11/03 03:44:27;;;;;;;37.67;11.78;;;;;;;7.15;100.00;101332.73;5066340;57;1138837;-77
2022/11/03 03:49:32;;;;;;;22.27;9.25;;;;;;;7.05;100.00;101333.64;5065798;57;1140737;-77
2022/11/03 03:54:39;;;;;;;19.57;7.33;;;;;;;6.90;100.00;101342.75;5022144;57;1138700;-76
2022/11/03 03:59:47;;;;;;;14.67;6.97;;;;;;;6.84;100.00;101337.81;5009507;57;1140813;-78
2022/11/03 04:04:53;;;;;;;17.33;6.87;;;;;;;6.88;100.00;101335.40;5040804;57;1140928;-76
2022/11/03 04:10:00;;;;;;;19.50;6.53;;;;;;;6.91;100.00;101324.27;5026816;57;1140747;-78
2022/11/03 04:25:56;;;;;;;18.90;6.63;;;;;;;6.64;100.00;101333.05;4975234;57;1139013;-77
2022/11/03 04:31:02;;;;;;;27.70;6.80;;;;;;;6.56;100.00;101327.80;4975611;57;1138669;-77
2022/11/03 04:36:25;;;;;;;29.70;6.10;;;;;;;6.50;100.00;101336.81;4939236;57;1140906;-77
2022/11/03 04:41:33;;;;;;;21.43;6.23;;;;;;;6.50;100.00;101324.98;4896951;57;1140857;-77
2022/11/03 04:46:39;;;;;;;26.03;8.07;;;;;;;6.49;100.00;101331.16;4960949;57;1140865;-75
2022/11/03 04:51:45;;;;;;;17.63;9.47;;;;;;;6.45;100.00;101325.66;4963492;57;1138748;-77
2022/11/03 04:56:51;;;;;;;25.77;11.07;;;;;;;6.40;100.00;101314.53;4934694;57;1139180;-77
2022/11/03 05:01:57;;;;;;;23.80;9.80;;;;;;;6.27;100.00;101313.38;4932887;57;1140777;-77
2022/11/03 05:07:05;;;;;;;28.23;9.23;;;;;;;5.97;100.00;101312.58;4936296;57;1138891;-77
2022/11/03 05:12:11;;;;;;;25.70;7.50;;;;;;;5.97;100.00;101312.58;4818587;58;1140918;-77
2022/11/03 05:17:23;;;;;;;26.07;9.97;;;;;;;5.90;100.00;101308.55;4959048;57;1141095;-77
2022/11/03 05:22:37;;;;;;;39.23;19.43;;;;;;;5.87;100.00;101309.10;4912359;57;1140856;-78
2022/11/03 05:27:43;;;;;;;52.57;21.60;;;;;;;5.80;100.00;101313.80;4894433;57;1140783;-77
2022/11/03 05:32:49;;;;;;;43.93;18.23;;;;;;;5.73;100.00;101304.94;4952836;57;1140815;-77
2022/11/03 05:37:55;;;;;;;55.30;16.90;;;;;;;5.57;100.00;101312.19;4945041;58;1140928;-77
2022/11/03 05:43:02;;;;;;;55.30;23.27;;;;;;;5.42;100.00;101303.67;4980977;57;1140844;-77
2022/11/03 05:48:31;;;;;;;63.90;25.15;;;;;;;5.34;100.00;101312.81;5004750;57;1140815;-77
2022/11/03 05:53:42;;;;;;;110.55;45.60;;;;;;;5.26;100.00;101316.59;5026675;57;1143017;-77
2022/11/03 05:58:49;;;;;;;90.93;37.63;;;;;;;5.28;100.00;101323.95;5001216;57;1145007;-77
2022/11/03 06:03:55;;;;;;;96.87;46.00;;;;;;;5.27;100.00;101327.48;4977885;57;1140920;-77
2022/11/03 06:09:13;;;;;;;94.63;37.87;;;;;;;5.24;100.00;101326.30;5005107;57;1140908;-78
2022/11/03 06:14:23;;;;;;;103.37;35.63;;;;;;;5.22;100.00;101325.96;4891958;57;1140849;-77
2022/11/03 06:19:36;;;;;;;131.87;44.20;;;;;;;5.19;100.00;101333.53;4996390;57;1144873;-77
2022/11/03 06:24:42;;;;;;;87.85;33.23;;;;;;;5.16;100.00;101324.47;5032375;57;1142705;-78
2022/11/03 06:29:59;;;;;;;52.73;19.70;;;;;;;5.12;100.00;101331.22;5027538;57;1140937;-77
2022/11/03 06:35:05;;;;;;;42.63;14.30;;;;;;;5.11;100.00;101325.12;5044505;57;1140677;-76
2022/11/03 06:40:19;;;;;;;65.43;25.33;;;;;;;5.25;100.00;101323.22;4967829;57;1142976;-76
2022/11/03 06:45:26;;;;;;;62.83;18.27;;;;;;;5.40;100.00;101320.39;5066370;57;1142884;-76
2022/11/03 06:50:33;;;;;;;102.67;28.40;;;;;;;5.56;100.00;101318.80;5037776;57;1142810;-75
2022/11/03 06:55:40;;;;;;;104.32;31.45;;;;;;;5.70;100.00;101318.19;5049520;56;1142805;-77
2022/11/03 07:00:47;;;;;;;101.40;32.17;;;;;;;5.87;100.00;101323.08;5017999;57;1144819;-77
2022/11/03 07:05:59;;;;;;;96.00;26.50;;;;;;;6.05;100.00;101319.27;5048832;57;1144985;-76
2022/11/03 07:11:15;;;;;;;64.60;23.10;;;;;;;6.24;100.00;101319.66;5012302;57;1143064;-67
2022/11/03 07:16:33;;;;;;;55.38;18.55;;;;;;;6.44;100.00;101320.01;4984529;57;1143009;-68
2022/11/03 07:22:00;;;;;;;49.30;18.40;;;;;;;6.67;100.00;101318.92;5016715;57;1140879;-69
2022/11/03 07:27:25;;;;;;;26.67;11.33;;;;;;;6.89;100.00;101310.34;4990574;57;1142955;-74
2022/11/03 07:32:34;;;;;;;52.65;21.10;;;;;;;7.10;100.00;101307.58;5064053;57;1142944;-74
2022/11/03 07:37:40;;;;;;;52.10;19.87;;;;;;;7.41;100.00;101297.19;5023851;57;1143094;-74
2022/11/03 07:42:45;;;;;;;40.67;15.30;;;;;;;7.69;100.00;101288.69;4970433;58;1142985;-74
2022/11/03 07:47:51;;;;;;;36.57;13.37;;;;;;;8.00;100.00;101288.73;5063790;57;1143059;-74
2022/11/03 07:52:57;;;;;;;41.17;13.67;;;;;;;8.20;100.00;101285.48;4909507;57;1142907;-76
2022/11/03 07:58:06;;;;;;;25.93;10.27;;;;;;;8.48;100.00;101273.80;5010816;57;1142850;-76
2022/11/03 08:03:16;;;;;;;20.73;7.00;;;;;;;8.75;100.00;101266.08;4990546;57;1143166;-74
2022/11/03 08:08:22;;;;;;;31.30;12.17;;;;;;;8.81;100.00;101257.36;5054092;57;1140955;-75
2022/11/03 08:13:28;;;;;;;41.02;11.12;;;;;;;9.06;100.00;101251.94;4949585;57;1143107;-76
2022/11/03 08:18:35;;;;;;;35.23;19.77;;;;;;;9.52;100.00;101238.13;4895868;58;1142951;-74
2022/11/03 08:23:41;;;;;;;24.90;8.85;;;;;;;9.71;100.00;101234.72;4891245;58;1143010;-75
2022/11/03 08:28:47;;;;;;;25.80;10.07;;;;;;;9.75;100.00;101228.78;4932493;57;1141061;-73
2022/11/03 08:33:53;;;;;;;30.70;16.27;;;;;;;9.66;100.00;101232.83;4947204;56;1143538;-74
2022/11/03 08:38:58;;;;;;;18.10;8.17;;;;;;;9.63;100.00;101220.28;4940100;57;1142967;-74
2022/11/03 08:44:05;;;;;;;15.40;6.33;;;;;;;9.58;100.00;101217.09;4973251;58;1140990;-74
2022/11/03 08:49:11;;;;;;;26.80;8.47;;;;;;;9.67;100.00;101222.64;4967417;58;1140815;-74
2022/11/03 08:54:16;;;;;;;18.17;5.67;;;;;;;9.84;100.00;101217.15;4970392;58;1140813;-75
2022/11/03 08:59:22;;;;;;;18.10;4.30;;;;;;;10.03;100.00;101207.58;4971571;58;1140777;-76
2022/11/03 09:04:27;;;;;;;10.00;3.70;;;;;;;10.28;100.00;101196.76;4974580;58;1143179;-75
2022/11/03 09:09:34;;;;;;;10.33;3.83;;;;;;;10.46;100.00;101199.52;4949426;57;1142899;-74
2022/11/03 09:14:40;;;;;;;9.77;3.43;;;;;;;10.70;100.00;101200.52;4920442;58;1143031;-75
2022/11/03 09:19:45;;;;;;;12.83;4.33;;;;;;;10.82;100.00;101206.33;4944673;58;1140940;-75
2022/11/03 09:24:51;;;;;;;9.77;2.73;;;;;;;10.85;100.00;101196.83;4882767;59;1142975;-75
2022/11/03 09:29:57;;;;;;;6.37;2.67;;;;;;;10.98;100.00;101193.37;4882904;58;1140711;-76
2022/11/03 09:35:03;;;;;;;9.33;2.70;;;;;;;11.03;100.00;101196.53;4883162;58;1141211;-76
2022/11/03 09:40:11;;;;;;;17.03;4.03;;;;;;;11.11;100.00;101187.61;4883759;58;1140719;-75
2022/11/03 09:45:17;;;;;;;6.67;2.70;;;;;;;11.14;100.00;101176.81;4874152;58;1142820;-75
2022/11/03 09:50:23;;;;;;;12.17;3.87;;;;;;;11.21;100.00;101178.91;4883468;58;1140756;-76
2022/11/03 09:55:29;;;;;;;13.70;2.97;;;;;;;11.31;100.00;101170.30;4883679;58;1146608;-75
2022/11/03 10:00:35;;;;;;;12.68;4.67;;;;;;;11.36;100.00;101164.22;4920971;58;1142794;-74
2022/11/03 10:05:43;;;;;;;86.17;33.48;;;;;;;11.40;100.00;101169.67;4870821;59;1142792;-76
2022/11/03 10:10:50;;;;;;;9.40;4.20;;;;;;;11.43;100.00;101151.77;4915246;58;1144971;-76
2022/11/03 10:15:57;;;;;;;12.80;5.20;;;;;;;11.47;100.00;101132.52;5008722;56;1140918;-75
2022/11/03 10:21:07;;;;;;;8.63;2.70;;;;;;;11.50;100.00;101133.15;4905030;58;1143036;-73
2022/11/03 10:26:20;;;;;;;19.23;4.83;;;;;;;11.61;99.68;101127.91;4974184;58;1140662;-73
2022/11/03 10:31:39;;;;;;;23.90;7.30;;;;;;;11.76;100.00;101124.70;4827537;59;1140831;-75
2022/11/03 10:36:45;;;;;;;11.75;4.70;;;;;;;11.88;100.00;101121.63;4842364;58;1143085;-75
2022/11/03 10:41:59;;;;;;;19.50;3.97;;;;;;;11.98;100.00;101112.86;4985842;58;1142822;-74
2022/11/03 10:47:06;;;;;;;9.60;3.43;;;;;;;12.08;99.82;101113.50;4995241;57;1143149;-75
2022/11/03 10:52:21;;;;;;;14.87;3.17;;;;;;;12.23;96.39;101112.35;4995831;58;1138907;-76
2022/11/03 10:57:28;;;;;;;15.23;4.40;;;;;;;12.35;97.05;101111.45;5000413;57;1141205;-76
2022/11/03 11:02:35;;;;;;;18.13;5.53;;;;;;;12.50;94.83;101106.31;5010193;57;1141027;-75
2022/11/03 11:07:43;;;;;;;19.93;6.20;;;;;;;12.71;92.11;101103.80;4915799;57;1140894;-75
2022/11/03 11:13:23;;;;;;;22.33;3.53;;;;;;;12.88;90.42;101096.70;4867916;58;1140853;-74
2022/11/03 11:18:34;;;;;;;14.57;4.47;;;;;;;13.12;92.09;101091.30;4793003;59;1140866;-74
2022/11/03 11:23:44;;;;;;;15.00;4.67;;;;;;;13.31;89.70;101078.73;4755561;60;1140922;-75
2022/11/03 11:29:15;;;;;;;10.50;2.60;;;;;;;13.53;89.39;101067.23;4768401;60;1140920;-73
2022/11/03 11:34:22;;;;;;;6.00;2.47;;;;;;;13.74;87.38;101052.20;4770403;60;1140871;-74
2022/11/03 11:39:34;;;;;;;10.30;4.22;;;;;;;13.94;83.60;101046.54;4772466;59;1138687;-75
2022/11/03 11:44:56;;;;;;;12.53;4.07;;;;;;;14.11;86.36;101039.33;4853760;58;1140895;-74
2022/11/03 11:50:10;;;;;;;10.10;3.90;;;;;;;14.26;84.92;101029.20;4828752;59;1140737;-74
2022/11/03 11:55:26;;;;;;;13.23;3.43;;;;;;;14.25;82.45;101024.85;4757445;60;1140962;-74
2022/11/03 12:00:34;;;;;;;13.27;5.00;;;;;;;14.36;82.53;101010.98;4828571;59;1140763;-73
2022/11/03 12:05:41;;;;;;;20.40;10.00;;;;;;;14.57;84.02;100999.51;4843188;59;1140745;-73
2022/11/03 12:10:55;;;;;;;17.57;4.20;;;;;;;14.66;82.97;100982.75;4828608;59;1142950;-74
2022/11/03 12:16:01;;;;;;;7.73;2.67;;;;;;;14.63;81.09;100977.20;4808660;59;1140785;-73
2022/11/03 12:21:13;;;;;;;13.63;3.00;;;;;;;14.71;82.01;100978.69;4873751;58;1138841;-73
2022/11/03 12:26:29;;;;;;;14.97;5.80;;;;;;;14.76;83.34;100968.49;4926101;58;1140868;-74
2022/11/03 12:31:34;;;;;;;13.83;3.47;;;;;;;14.93;78.75;100967.49;5016027;56;1140887;-74
2022/11/03 12:36:40;;;;;;;9.88;3.25;;;;;;;14.98;78.68;100957.25;4930870;58;1141176;-74
2022/11/03 12:41:46;;;;;;;9.80;2.70;;;;;;;14.99;76.12;100938.96;4954119;57;1138597;-74
2022/11/03 12:46:53;;;;;;;9.00;3.73;;;;;;;14.94;77.95;100940.73;5027907;57;1138547;-73
2022/11/03 12:52:05;;;;;;;14.67;4.73;;;;;;;15.05;80.27;100924.62;4999101;57;1138656;-75
2022/11/03 12:57:06;;;;;;;15.03;6.03;;;;;;;15.23;79.00;100912.80;4993862;57;1141036;-73
2022/11/03 13:02:11;;;;;;;15.28;4.95;;;;;;;15.44;80.56;100904.64;4924403;57;1140920;-73
2022/11/03 13:07:17;;;;;;;15.07;4.17;;;;;;;15.74;76.98;100910.33;5057254;57;1140796;-73
2022/11/03 13:12:31;;;;;;;16.50;5.27;;;;;;;15.88;75.88;100897.91;4985103;57;1140830;-74
2022/11/03 13:17:36;;;;;;;18.70;7.65;;;;;;;16.09;75.84;100889.69;4970978;57;1140763;-74
2022/11/03 13:22:44;;;;;;;10.23;5.17;;;;;;;16.45;72.97;100879.50;4996777;57;1140970;-76
2022/11/03 13:27:52;;;;;;;12.70;4.40;;;;;;;17.07;72.96;100866.36;4983059;58;1140869;-73
2022/11/03 13:32:57;;;;;;;16.17;5.07;;;;;;;17.29;65.83;100855.19;4982754;57;1140873;-74
2022/11/03 13:38:04;;;;;;;23.90;7.53;;;;;;;17.53;63.81;100847.88;4990229;57;1140945;-74
2022/11/03 13:43:10;;;;;;;12.23;6.13;;;;;;;18.00;67.06;100844.87;5019788;57;1141069;-74
2022/11/03 13:48:17;;;;;;;7.30;3.10;;;;;;;18.22;64.04;100836.27;4982801;58;1140944;-74
2022/11/03 13:53:23;;;;;;;6.73;2.57;;;;;;;18.52;62.91;100837.55;5049436;57;1138785;-75
2022/11/03 13:58:29;;;;;;;7.20;3.90;;;;;;;18.51;59.81;100831.85;5014392;56;1258273;-75
2022/11/03 14:03:38;;;;;;;10.72;3.42;;;;;;;18.40;60.25;100830.31;5020185;57;1138783;-74
2022/11/03 14:08:44;;;;;;;11.28;3.92;;;;;;;17.58;60.16;100833.52;5017027;57;1140857;-76
2022/11/03 14:13:51;;;;;;;11.10;4.53;;;;;;;16.54;63.15;100828.36;5014159;56;1140834;-77
2022/11/03 14:18:56;;;;;;;9.63;3.30;;;;;;;15.86;65.63;100825.68;4994937;57;1141080;-75
2022/11/03 14:24:03;;;;;;;12.37;4.07;;;;;;;15.29;67.07;100821.61;4954670;58;1138802;-78
2022/11/03 14:29:09;;;;;;;21.37;6.37;;;;;;;15.19;68.20;100813.28;4945791;58;1140937;-75
2022/11/03 14:34:15;;;;;;;13.90;5.80;;;;;;;15.02;68.59;100809.02;4969377;58;1140867;-74
2022/11/03 14:39:20;;;;;;;15.43;8.30;;;;;;;14.65;69.25;100798.22;4977669;57;1140882;-76
2022/11/03 14:44:27;;;;;;;8.13;4.27;;;;;;;14.27;71.05;100797.61;4977263;56;1140868;-75
2022/11/03 14:49:34;;;;;;;16.30;5.83;;;;;;;13.92;72.97;100798.52;4977719;57;1138705;-76
2022/11/03 14:54:41;;;;;;;19.25;7.33;;;;;;;13.60;75.03;100787.52;4977369;57;1140973;-74
2022/11/03 14:59:46;;;;;;;29.65;16.97;;;;;;;13.33;76.31;100782.77;4976545;58;1140775;-74
2022/11/03 15:04:52;;;;;;;18.23;6.60;;;;;;;13.14;77.51;100775.14;4974691;58;1143140;-77
2022/11/03 15:09:57;;;;;;;21.50;7.13;;;;;;;12.95;78.69;100759.91;4976585;57;1140999;-75
2022/11/03 15:15:03;;;;;;;33.13;13.00;;;;;;;12.80;79.21;100759.85;4977304;57;1140975;-74
2022/11/03 15:20:10;;;;;;;19.37;7.30;;;;;;;12.73;80.01;100752.88;4970002;58;1142922;-74
2022/11/03 15:25:16;;;;;;;18.60;7.97;;;;;;;12.66;80.58;100763.65;4995559;56;1140921;-75
2022/11/03 15:30:21;;;;;;;19.67;8.10;;;;;;;12.50;81.15;100756.11;4869299;58;1140921;-75
2022/11/03 15:35:27;;;;;;;33.00;12.15;;;;;;;12.41;81.74;100762.14;4924165;57;1140812;-76
2022/11/03 15:40:33;;;;;;;34.00;13.60;;;;;;;12.35;81.93;100753.38;4959256;57;1152510;-74
2022/11/03 15:45:39;;;;;;;33.10;19.70;;;;;;;12.23;82.14;100753.86;4961292;57;1143005;-74
2022/11/03 15:50:45;;;;;;;53.33;28.35;;;;;;;12.07;82.81;100744.12;4892348;58;1142999;-73
2022/11/03 15:55:51;;;;;;;47.83;19.93;;;;;;;11.94;83.21;100728.84;5000811;57;1142988;-76
2022/11/03 16:00:56;;;;;;;31.23;13.70;;;;;;;11.78;83.60;100714.65;4961147;57;1143016;-75
2022/11/03 16:06:02;;;;;;;52.87;22.07;;;;;;;11.68;84.32;100701.75;4974091;58;1143056;-74
2022/11/03 16:11:07;;;;;;;75.70;44.90;;;;;;;11.54;85.29;100692.25;4919184;57;1142986;-75
2022/11/03 16:16:14;;;;;;;113.17;67.67;;;;;;;11.43;85.63;100684.80;4929820;58;1142848;-76
2022/11/03 16:21:20;;;;;;;62.03;33.97;;;;;;;11.30;86.03;100680.94;4988987;57;1144998;-74
2022/11/03 16:26:26;;;;;;;57.30;34.43;;;;;;;11.16;86.57;100673.20;4934650;58;1142970;-74
2022/11/03 16:31:32;;;;;;;22.33;11.43;;;;;;;11.10;86.75;100675.02;4912823;58;1142656;-74
2022/11/03 16:36:37;;;;;;;23.95;7.35;;;;;;;11.01;87.42;100662.47;5022531;57;1143019;-75
2022/11/03 16:41:43;;;;;;;28.32;13.22;;;;;;;10.88;87.97;100658.61;4999148;57;1140717;-75
2022/11/03 16:46:49;;;;;;;28.20;10.28;;;;;;;10.78;88.47;100651.87;5036034;57;1142771;-74
2022/11/03 16:51:54;;;;;;;24.43;10.57;;;;;;;10.70;89.41;100633.08;4994487;57;1142846;-76
2022/11/03 16:57:00;;;;;;;33.27;11.97;;;;;;;10.57;91.22;100634.49;4983559;57;1142959;-76
2022/11/03 17:02:06;;;;;;;27.73;12.37;;;;;;;10.50;92.03;100618.73;5011450;57;1142863;-75
2022/11/03 17:07:11;;;;;;;28.77;12.33;;;;;;;10.44;92.57;100601.16;5017080;57;1142854;-75
2022/11/03 17:12:17;;;;;;;31.42;13.48;;;;;;;10.37;92.95;100598.16;4982856;57;1142959;-75
2022/11/03 17:17:23;;;;;;;38.33;15.47;;;;;;;10.28;93.39;100590.05;5014653;57;1142800;-75
2022/11/03 17:22:28;;;;;;;34.77;13.53;;;;;;;10.19;93.45;100594.25;4995782;57;1142986;-75
2022/11/03 17:27:56;;;;;;;31.70;13.77;;;;;;;10.19;93.09;100584.99;4980608;58;1142905;-76
2022/11/03 17:33:06;;;;;;;21.73;10.20;;;;;;;10.16;92.94;100569.33;4986467;57;1142752;-75
2022/11/03 17:38:15;;;;;;;35.57;20.30;;;;;;;10.12;92.80;100554.65;4986181;57;1143147;-75
2022/11/03 17:43:36;;;;;;;21.42;10.15;;;;;;;10.10;92.73;100547.31;4994783;57;1142996;-75
2022/11/03 17:48:33;;;;;;;28.00;8.00;;;;;;;10.03;92.75;100544.78;5000814;57;1142982;-76
2022/11/03 17:53:42;;;;;;;20.60;8.60;;;;;;;10.00;92.55;100540.56;4982009;57;1140896;-76
2022/11/03 17:58:47;;;;;;;19.00;7.97;;;;;;;9.99;92.47;100538.03;5006268;57;1140733;-74
2022/11/03 18:03:53;;;;;;;21.70;8.30;;;;;;;9.98;92.51;100537.67;4994887;57;1138846;-75
2022/11/03 18:08:59;;;;;;;17.50;7.10;;;;;;;9.93;92.45;100534.55;4996684;57;1138767;-76
2022/11/03 18:14:05;;;;;;;18.20;6.43;;;;;;;9.87;92.35;100514.22;4986349;57;1138753;-74
2022/11/03 18:19:14;;;;;;;17.47;7.07;;;;;;;9.83;92.28;100500.88;4991831;57;1138757;-76
2022/11/03 18:24:21;;;;;;;34.87;18.03;;;;;;;9.82;91.93;100495.23;4984174;57;1138877;-75
2022/11/03 18:29:28;;;;;;;12.87;6.97;;;;;;;9.84;92.03;100483.23;4986101;57;1140904;-74
2022/11/03 18:34:35;;;;;;;22.07;7.03;;;;;;;9.81;92.13;100479.02;4979029;57;1138763;-75
2022/11/03 18:39:42;;;;;;;19.92;7.83;;;;;;;9.80;92.42;100473.84;4946268;58;1138790;-75
2022/11/03 18:44:47;;;;;;;21.30;8.23;;;;;;;9.81;92.63;100466.28;4978360;57;1138779;-75
2022/11/03 18:49:55;;;;;;;17.37;7.40;;;;;;;9.80;92.92;100440.83;5025395;57;1138735;-75
2022/11/03 18:55:01;;;;;;;20.03;7.07;;;;;;;9.81;92.78;100428.83;4953744;57;1138804;-74
2022/11/03 19:00:14;;;;;;;20.23;6.90;;;;;;;9.82;92.93;100427.87;4966511;57;1138929;-73
2022/11/03 19:05:22;;;;;;;20.20;7.92;;;;;;;9.85;92.91;100425.00;4942439;58;1138824;-73
2022/11/03 19:10:29;;;;;;;16.60;6.53;;;;;;;9.90;92.89;100423.34;4982703;57;1138698;-74
2022/11/03 19:15:35;;;;;;;22.50;7.53;;;;;;;9.89;92.97;100405.80;5013000;56;1138893;-76
2022/11/03 19:20:40;;;;;;;20.07;8.50;;;;;;;9.87;93.14;100399.31;4977051;57;1138621;-76
2022/11/03 19:25:48;;;;;;;14.07;6.78;;;;;;;9.81;93.62;100391.84;5010177;57;1138919;-75
2022/11/03 19:30:55;;;;;;;19.10;8.30;;;;;;;9.82;93.55;100380.33;5018797;57;1138765;-73
2022/11/03 19:36:01;;;;;;;20.15;7.90;;;;;;;9.77;93.93;100366.66;5021120;57;1138817;-75
2022/11/03 19:46:40;;;;;;;20.90;9.97;;;;;;;9.66;94.56;100353.88;5053312;57;1170028;-74
2022/11/03 19:51:46;;;;;;;20.37;8.43;;;;;;;9.66;94.47;100338.03;5015949;57;1139020;-74
2022/11/03 19:56:52;;;;;;;17.95;7.70;;;;;;;9.59;94.73;100337.69;4999120;57;1138846;-74
2022/11/03 20:01:58;;;;;;;24.23;9.90;;;;;;;9.58;94.86;100339.12;5010523;57;1138886;-74
2022/11/03 20:07:06;;;;;;;21.00;8.60;;;;;;;9.53;94.79;100331.06;5015327;57;1138735;-74
2022/11/03 20:12:16;;;;;;;17.93;8.47;;;;;;;9.50;95.05;100321.20;5011569;57;1138621;-74
2022/11/03 20:17:23;;;;;;;20.90;9.30;;;;;;;9.49;95.18;100314.24;4992782;57;1138823;-75
2022/11/03 20:22:30;;;;;;;20.70;9.10;;;;;;;9.44;95.39;100304.05;5065831;57;1138683;-74
2022/11/03 20:27:36;;;;;;;25.03;9.00;;;;;;;9.38;95.89;100294.43;5013855;57;1214011;-73
2022/11/03 20:32:44;;;;;;;25.85;8.43;;;;;;;9.31;96.09;100292.75;5019193;57;1138857;-75
2022/11/03 20:37:54;;;;;;;24.63;9.13;;;;;;;9.36;96.10;100277.87;5027888;57;1138967;-76
2022/11/03 20:43:02;;;;;;;19.70;9.10;;;;;;;9.32;96.42;100275.13;5002014;57;1138611;-74
2022/11/03 20:48:11;;;;;;;23.23;9.23;;;;;;;9.30;96.49;100261.20;5038614;57;1138769;-75
2022/11/03 20:53:21;;;;;;;24.40;9.20;;;;;;;9.23;97.07;100258.17;5001244;57;1138547;-75
2022/11/03 20:58:26;;;;;;;27.40;10.53;;;;;;;9.20;97.36;100243.89;4989994;57;1138754;-76
2022/11/03 21:03:32;;;;;;;19.10;8.50;;;;;;;9.21;97.51;100238.97;4997009;57;1140704;-75
2022/11/03 21:08:39;;;;;;;25.53;9.53;;;;;;;9.19;98.03;100227.69;4981009;57;1138776;-74
2022/11/03 21:13:46;;;;;;;20.40;8.23;;;;;;;9.16;98.45;100224.00;5005367;57;1138745;-75
2022/11/03 21:24:15;;;;;;;27.30;10.00;;;;;;;9.16;98.68;100213.44;4989071;57;1138760;-76
2022/11/03 21:29:21;;;;;;;19.33;8.77;;;;;;;9.13;99.08;100204.44;5010860;57;1141004;-75
2022/11/03 21:34:28;;;;;;;25.73;8.73;;;;;;;9.10;99.46;100198.91;4998530;57;1138731;-74
2022/11/03 21:39:33;;;;;;;32.95;9.03;;;;;;;9.13;99.34;100193.41;4980050;57;1138681;-74
2022/11/03 21:44:43;;;;;;;25.40;10.17;;;;;;;9.11;99.80;100174.21;4968033;57;1138559;-76
2022/11/03 21:49:49;;;;;;;18.53;9.23;;;;;;;9.09;100.00;100177.92;4942207;58;1141023;-75
2022/11/03 21:54:55;;;;;;;25.90;9.97;;;;;;;9.04;100.00;100161.12;4963539;58;1140857;-75
2022/11/03 22:00:00;;;;;;;25.80;10.20;;;;;;;9.09;100.00;100162.09;4973799;56;1140852;-75
2022/11/03 22:05:08;;;;;;;24.00;10.57;;;;;;;9.09;100.00;100152.37;4969836;58;1142910;-75
2022/11/03 22:10:14;;;;;;;17.90;9.90;;;;;;;9.09;100.00;100142.30;4897063;58;1143098;-76
2022/11/03 22:31:43;;;;;;;20.70;9.70;;;;;;;9.09;100.00;100114.61;4914095;58;1140956;-76
2022/11/03 22:36:45;;;;;;;23.40;9.95;;;;;;;9.08;100.00;100107.64;5026487;56;1140900;-75
2022/11/03 22:47:13;;;;;;;21.40;9.70;;;;;;;9.04;100.00;100101.77;5040278;57;1142890;-74
2022/11/03 22:52:19;;;;;;;28.20;10.93;;;;;;;9.05;100.00;100089.41;5021297;57;1140898;-73
2022/11/03 22:57:25;;;;;;;24.83;8.87;;;;;;;9.05;100.00;100078.86;4994008;57;1142951;-75
2022/11/03 23:02:30;;;;;;;18.70;7.60;;;;;;;9.03;100.00;100064.47;5012848;57;1140947;-75
2022/11/03 23:07:36;;;;;;;24.47;8.83;;;;;;;9.08;100.00;100067.60;4996362;57;1140799;-74
2022/11/03 23:12:42;;;;;;;23.40;9.70;;;;;;;9.09;100.00;100064.48;5047329;57;1149386;-74
2022/11/03 23:24:58;;;;;;;20.23;8.20;;;;;;;9.10;100.00;100051.17;5015183;57;1140695;-74
2022/11/03 23:28:19;;;;;;;21.73;10.10;;;;;;;9.14;100.00;100039.42;4987229;57;1140717;-76
2022/11/03 23:33:25;;;;;;;26.13;10.03;;;;;;;9.15;100.00;100040.27;5007776;57;1142818;-74
2022/11/03 23:38:34;;;;;;;19.47;8.90;;;;;;;9.16;100.00;100037.52;5047008;57;1142948;-74
2022/11/03 23:43:40;;;;;;;21.93;8.37;;;;;;;9.16;100.00;100026.95;5078105;57;1140915;-75
2022/11/03 23:48:45;;;;;;;24.55;9.03;;;;;;;9.20;100.00;100020.09;5078142;57;1140792;-75
2022/11/03 23:53:52;;;;;;;23.05;10.00;;;;;;;9.20;100.00;100005.58;5077941;57;1141267;-77